Time;durP1;ratioP1;P1;durP2;ratioP2;P2;SDS_P1;SDS_P2;PMS_P1;PMS_P2;Temp;Humidity;BMP_temperature;BMP_pressure;BME280_temperature;BME280_humidity;BME280_pressure;Samples;Min_cycle;Max_cycle;Signal;HPM_P1;HPM_P2
2023/06/03 00:00:44;;;;;;;5.13;2.20;;;;;;;16.98;100.00;100063.88;10418329;28;20408;-68
2023/06/03 00:05:44;;;;;;;5.15;1.90;;;;;;;17.33;100.00;100123.31;10417514;28;20116;-68
2023/06/03 00:10:45;;;;;;;11.57;2.25;;;;;;;17.75;100.00;100196.94;10418316;28;20065;-68
2023/06/03 00:15:47;;;;;;;4.63;1.90;;;;;;;17.59;100.00;100181.38;10417464;28;20041;-68
2023/06/03 00:20:48;;;;;;;7.57;2.30;;;;;;;17.65;100.00;100209.19;10417487;28;20501;-68
2023/06/03 00:25:49;;;;;;;4.82;2.08;;;;;;;17.48;100.00;100190.94;10416966;28;20744;-68
2023/06/03 00:30:50;;;;;;;9.45;1.90;;;;;;;17.02;100.00;100133.00;10398894;28;20048;-68
2023/06/03 00:35:50;;;;;;;4.63;2.47;;;;;;;17.52;100.00;100218.19;10416938;28;20409;-68
2023/06/03 00:40:51;;;;;;;5.93;2.55;;;;;;;17.01;100.00;100130.53;10416775;28;20612;-68
2023/06/03 00:45:53;;;;;;;5.13;2.25;;;;;;;16.93;100.00;100115.53;10416505;28;20394;-68
2023/06/03 00:50:54;;;;;;;9.70;2.33;;;;;;;17.22;100.00;100153.53;10415883;28;20041;-68
2023/06/03 00:55:55;;;;;;;5.72;2.40;;;;;;;17.39;100.00;100186.06;10415746;28;20564;-68
2023/06/03 01:00:56;;;;;;;34.13;4.72;;;;;;;17.49;100.00;100221.31;10415894;28;20079;-68
2023/06/03 01:06:27;;;;;;;6.40;2.92;;;;;;;17.57;100.00;100223.75;10415454;28;20072;-68
2023/06/03 01:11:47;;;;;;;12.50;3.60;;;;;;;17.50;100.00;100229.16;10414934;28;20060;-68
2023/06/03 01:16:50;;;;;;;24.38;4.43;;;;;;;17.36;100.00;100213.34;10415151;28;20047;-68
2023/06/03 01:22:00;;;;;;;40.13;3.80;;;;;;;16.97;100.00;100142.75;10414513;28;20197;-68
2023/06/03 01:27:01;;;;;;;47.00;5.80;;;;;;;17.42;100.00;100228.59;10415503;28;20386;-68
2023/06/03 01:32:02;;;;;;;16.10;3.10;;;;;;;17.38;100.00;100230.88;10414910;28;20049;-68
2023/06/03 01:37:03;;;;;;;18.98;3.50;;;;;;;17.26;100.00;100233.44;10415376;28;20132;-68
2023/06/03 01:42:04;;;;;;;32.55;4.03;;;;;;;17.36;100.00;100242.88;10414636;28;20048;-68
2023/06/03 01:47:05;;;;;;;29.27;4.68;;;;;;;17.34;100.00;100235.03;10396474;28;20471;-68
2023/06/03 01:52:06;;;;;;;15.40;3.22;;;;;;;17.41;100.00;100240.34;10413572;28;20044;-69
2023/06/03 01:57:08;;;;;;;12.18;2.78;;;;;;;17.40;100.00;100246.78;10413889;28;20049;-68
2023/06/03 02:02:08;;;;;;;26.02;3.65;;;;;;;17.45;100.00;100246.97;10414134;28;20041;-68
2023/06/03 02:07:10;;;;;;;9.95;2.75;;;;;;;17.52;100.00;100216.31;10413369;28;20467;-68
2023/06/03 02:12:11;;;;;;;28.95;4.75;;;;;;;17.92;100.00;100234.03;10413455;28;20041;-68
2023/06/03 02:17:13;;;;;;;9.10;2.80;;;;;;;18.22;100.00;100244.97;10413088;28;20128;-68
2023/06/03 02:22:14;;;;;;;35.67;3.80;;;;;;;18.55;100.00;100228.53;10413690;28;20037;-68
2023/06/03 02:27:19;;;;;;;15.23;3.50;;;;;;;18.99;100.00;100223.88;10412551;28;20405;-68
2023/06/03 02:32:20;;;;;;;8.93;2.60;;;;;;;19.96;100.00;100252.63;10412545;28;20034;-68
2023/06/03 02:37:22;;;;;;;9.80;2.65;;;;;;;20.45;100.00;100173.09;10412423;28;20064;-68
2023/06/03 02:42:23;;;;;;;4.45;1.83;;;;;;;21.80;98.40;100251.09;10412889;28;20512;-68
2023/06/03 02:47:23;;;;;;;3.78;1.90;;;;;;;22.65;93.50;100243.78;10413704;28;20037;-68
2023/06/03 02:52:24;;;;;;;11.45;3.08;;;;;;;23.68;89.00;100258.28;10412178;28;20041;-68
2023/06/03 02:57:26;;;;;;;6.50;2.13;;;;;;;24.17;84.14;100242.97;10411958;28;20045;-68
2023/06/03 03:02:27;;;;;;;4.50;1.85;;;;;;;24.63;80.28;100233.25;10412666;28;20045;-68
2023/06/03 03:07:28;;;;;;;5.45;2.30;;;;;;;24.74;79.32;100231.38;10422598;28;20056;-69
2023/06/03 03:12:28;;;;;;;7.13;3.03;;;;;;;25.15;76.51;100226.13;10423592;28;20091;-69
2023/06/03 03:17:29;;;;;;;5.28;3.28;;;;;;;25.33;73.45;100203.88;10412591;28;20045;-68
2023/06/03 03:22:30;;;;;;;7.03;3.58;;;;;;;25.47;73.46;100225.94;10411612;28;20045;-68
2023/06/03 03:27:32;;;;;;;6.72;2.63;;;;;;;25.53;71.69;100173.19;10419121;28;20033;-68
2023/06/03 03:32:34;;;;;;;5.03;2.97;;;;;;;27.03;68.23;100240.72;10460966;28;20124;-68
2023/06/03 03:37:35;;;;;;;6.78;2.80;;;;;;;27.90;64.62;100242.97;10447450;28;20037;-68
2023/06/03 03:42:36;;;;;;;4.45;2.70;;;;;;;28.62;62.33;100218.50;10418647;28;20041;-68
2023/06/03 03:47:36;;;;;;;5.32;2.97;;;;;;;29.29;59.78;100223.97;10419311;28;20037;-68
2023/06/03 03:52:37;;;;;;;5.70;4.22;;;;;;;29.66;58.14;100241.50;10419584;28;20041;-68
2023/06/03 03:57:39;;;;;;;9.20;3.40;;;;;;;29.17;56.32;100119.63;10417842;28;20539;-68
2023/06/03 04:02:41;;;;;;;5.20;2.58;;;;;;;30.41;54.98;100235.81;10418913;28;20041;-68
2023/06/03 04:07:46;;;;;;;4.53;2.00;;;;;;;30.02;53.08;100165.81;10400042;28;20050;-68
2023/06/03 04:12:48;;;;;;;5.80;2.42;;;;;;;30.77;51.79;100207.69;10418203;28;20464;-68
2023/06/03 04:17:49;;;;;;;4.45;2.17;;;;;;;30.67;51.55;100178.56;10417579;28;20382;-68
2023/06/03 04:22:51;;;;;;;3.92;2.20;;;;;;;31.11;51.14;100245.69;10417687;28;20037;-68
2023/06/03 04:27:52;;;;;;;;;;;;;;;32.80;49.96;100255.25;10428772;28;20073;-69
2023/06/03 04:32:52;;;;;;;5.30;1.92;;;;;;;31.45;51.09;100238.91;10417440;28;19971;-68
2023/06/03 04:37:53;;;;;;;3.72;1.50;;;;;;;31.19;51.10;100246.88;10416325;28;20041;-68
2023/06/03 04:42:54;;;;;;;5.05;1.60;;;;;;;30.85;50.07;100239.91;10416697;28;20037;-67
2023/06/03 04:47:58;;;;;;;5.55;1.50;;;;;;;30.64;51.35;100242.22;10416009;28;20516;-68
2023/06/03 04:52:58;;;;;;;4.85;1.02;;;;;;;30.16;49.79;100231.59;10416563;28;20046;-68
2023/06/03 04:58:00;;;;;;;2.40;1.00;;;;;;;30.05;49.01;100246.59;10416070;28;20038;-69
2023/06/03 05:03:03;;;;;;;10.07;1.20;;;;;;;29.56;49.55;100239.69;10436327;28;20041;-68
2023/06/03 05:08:04;;;;;;;3.38;1.20;;;;;;;29.61;49.89;100255.22;10454215;28;20056;-68
2023/06/03 05:13:06;;;;;;;4.07;1.25;;;;;;;28.41;51.81;100169.53;10456265;28;20139;-68
2023/06/03 05:18:07;;;;;;;2.53;1.10;;;;;;;28.30;52.68;100238.22;10448753;28;20045;-68
2023/06/03 05:23:08;;;;;;;3.70;0.80;;;;;;;27.89;53.07;100249.53;10414761;28;20045;-67
2023/06/03 05:28:11;;;;;;;3.20;1.15;;;;;;;27.23;54.44;100158.84;10414415;28;20034;-68
2023/06/03 05:33:25;;;;;;;7.40;1.70;;;;;;;27.86;52.98;100233.72;10415338;28;20045;-68
2023/06/03 05:38:27;;;;;;;1.80;0.90;;;;;;;27.26;52.96;100203.84;10414493;28;20064;-68
2023/06/03 05:43:28;;;;;;;2.35;0.93;;;;;;;26.98;54.00;100173.44;10431353;28;20575;-68
2023/06/03 05:48:29;;;;;;;4.35;1.30;;;;;;;27.51;53.96;100238.31;10455994;28;20044;-68
2023/06/03 05:53:30;;;;;;;15.15;1.60;;;;;;;27.47;53.46;100245.44;10454548;28;20073;-68
2023/06/03 05:58:30;;;;;;;2.40;1.00;;;;;;;27.56;52.98;100242.94;10406238;28;20037;-67
2023/06/03 06:03:31;;;;;;;5.40;0.75;;;;;;;27.28;51.44;100226.16;10413529;28;20493;-67
2023/06/03 06:08:32;;;;;;;2.38;1.00;;;;;;;27.45;51.94;100233.97;10424923;28;20053;-68
2023/06/03 06:13:34;;;;;;;5.10;1.00;;;;;;;27.48;51.47;100230.69;10413645;28;20068;-68
2023/06/03 06:18:35;;;;;;;5.35;1.17;;;;;;;27.40;52.59;100187.63;10412657;28;20059;-68
2023/06/03 06:23:37;;;;;;;2.83;0.82;;;;;;;27.30;51.86;100162.06;10412497;28;20041;-78
2023/06/03 06:28:37;;;;;;;2.00;0.85;;;;;;;27.67;50.72;100223.47;10424318;28;20048;-80
2023/06/03 06:33:39;;;;;;;2.58;0.90;;;;;;;27.79;50.80;100206.75;10413009;28;20044;-77
2023/06/03 06:38:40;;;;;;;4.97;0.98;;;;;;;27.99;52.13;100222.13;10412330;28;20041;-74
2023/06/03 06:43:40;;;;;;;1.67;0.80;;;;;;;27.83;50.97;100226.09;10412943;28;20405;-77
2023/06/03 06:48:41;;;;;;;2.08;0.90;;;;;;;28.00;51.32;100226.50;10412276;28;20067;-80
2023/06/03 06:53:47;;;;;;;4.97;1.05;;;;;;;28.11;51.34;100213.56;10413371;28;20040;-79
2023/06/03 06:58:48;;;;;;;3.75;1.42;;;;;;;28.34;50.36;100214.69;10407763;28;20398;-75
2023/06/03 07:03:49;;;;;;;12.32;1.40;;;;;;;27.71;49.05;100126.28;10419421;28;20048;-74
2023/06/03 07:08:50;;;;;;;9.55;1.55;;;;;;;28.11;49.18;100167.94;10461778;28;20417;-79
2023/06/03 07:13:51;;;;;;;4.30;1.30;;;;;;;28.24;49.81;100196.50;10461504;28;20047;-75
2023/06/03 07:18:53;;;;;;;5.80;1.10;;;;;;;28.23;50.88;100162.06;10420379;28;20044;-73
2023/06/03 07:23:54;;;;;;;13.07;1.60;;;;;;;28.46;50.85;100168.69;10419248;28;20515;-73
2023/06/03 07:28:57;;;;;;;2.65;0.88;;;;;;;28.56;49.93;100160.34;10420381;28;20061;-80
2023/06/03 07:33:59;;;;;;;5.25;1.08;;;;;;;28.84;50.74;100166.84;10418726;28;20048;-74
2023/06/03 07:39:08;;;;;;;5.77;1.60;;;;;;;29.20;52.20;100182.78;10419704;28;20048;-76
2023/06/03 07:44:14;;;;;;;9.02;2.05;;;;;;;29.17;50.09;100174.31;10418968;28;20037;-76
2023/06/03 07:49:16;;;;;;;8.63;1.40;;;;;;;28.46;52.76;100124.97;10419414;28;20493;-73
2023/06/03 07:54:18;;;;;;;4.82;1.20;;;;;;;28.54;52.36;100112.56;10418714;28;20037;-76
2023/06/03 07:59:21;;;;;;;1.90;1.30;;;;;;;28.55;52.13;100147.00;10418060;28;20459;-77
2023/06/03 08:04:34;;;;;;;3.40;1.27;;;;;;;28.11;52.21;100083.28;10400844;28;20038;-76
2023/06/03 08:09:37;;;;;;;4.10;1.20;;;;;;;28.10;51.79;100100.78;10418356;28;20057;-83
2023/06/03 08:14:39;;;;;;;2.53;1.13;;;;;;;28.55;50.72;100147.81;10417983;28;20077;-76
2023/06/03 08:19:44;;;;;;;7.20;1.38;;;;;;;28.52;50.35;100126.53;10417856;28;20049;-74
2023/06/03 08:24:45;;;;;;;8.95;1.63;;;;;;;28.67;50.48;100136.44;10417621;28;20386;-76
2023/06/03 08:29:46;;;;;;;2.95;1.27;;;;;;;29.00;50.53;100131.06;10399858;28;20045;-74
2023/06/03 08:34:46;;;;;;;3.70;1.40;;;;;;;29.04;50.62;100116.53;10417569;28;20044;-70
2023/06/03 08:39:47;;;;;;;4.43;1.33;;;;;;;29.24;49.36;100128.28;10416314;28;20041;-76
2023/06/03 08:44:50;;;;;;;4.85;1.27;;;;;;;29.13;47.20;100114.75;10416704;28;20052;-74
2023/06/03 08:50:10;;;;;;;4.25;1.00;;;;;;;29.24;46.94;100131.00;10416613;28;20041;-76
2023/06/03 08:55:15;;;;;;;17.00;1.33;;;;;;;29.09;48.64;100112.91;10416397;28;20493;-73
2023/06/03 09:00:24;;;;;;;7.28;1.27;;;;;;;29.16;48.51;100115.28;10415485;28;20045;-75
2023/06/03 09:05:26;;;;;;;15.63;1.95;;;;;;;29.07;50.27;100090.50;10416563;28;20049;-75
2023/06/03 09:10:26;;;;;;;18.75;2.22;;;;;;;28.92;50.87;100023.16;10373347;28;20203;-76
2023/06/03 09:15:29;;;;;;;26.10;2.38;;;;;;;29.57;48.99;100107.19;10374771;28;20133;-72
2023/06/03 09:20:30;;;;;;;4.85;1.38;;;;;;;29.05;48.33;100021.66;10374881;28;20049;-77
2023/06/03 09:25:30;;;;;;;2.70;1.05;;;;;;;29.23;48.21;100093.84;10372018;28;20627;-76
2023/06/03 09:30:35;;;;;;;5.00;1.40;;;;;;;29.60;48.54;100097.59;10378832;28;20050;-76
2023/06/03 09:35:35;;;;;;;28.48;2.03;;;;;;;29.55;47.79;100028.13;10398279;28;20630;-74
2023/06/03 09:40:36;;;;;;;6.05;1.48;;;;;;;29.52;45.71;100009.56;10410696;28;20128;-75
2023/06/03 09:45:37;;;;;;;2.55;1.10;;;;;;;29.95;46.22;100096.97;10409678;28;20044;-74
2023/06/03 09:50:49;;;;;;;11.20;1.90;;;;;;;30.09;46.77;100098.88;10405428;28;20092;-74
2023/06/03 09:55:50;;;;;;;9.85;1.40;;;;;;;29.27;47.49;99958.06;10383975;28;20583;-76
2023/06/03 10:00:51;;;;;;;4.72;1.33;;;;;;;30.29;47.75;100090.28;10373378;28;20056;-74
2023/06/03 10:05:52;;;;;;;10.50;1.77;;;;;;;30.50;47.83;100087.09;10373572;28;20137;-76
2023/06/03 10:10:55;;;;;;;14.88;2.38;;;;;;;30.20;46.42;100079.22;10371477;28;20145;-73
2023/06/03 10:15:58;;;;;;;21.35;3.13;;;;;;;30.18;46.33;100059.50;10371722;28;20038;-72
2023/06/03 10:21:04;;;;;;;13.07;1.95;;;;;;;29.65;45.50;99997.06;10371890;28;20096;-72
2023/06/03 10:26:08;;;;;;;7.63;1.65;;;;;;;29.99;45.91;100078.78;10372448;28;20046;-76
2023/06/03 10:31:12;;;;;;;9.30;1.98;;;;;;;29.92;46.39;100003.66;10372200;28;20505;-72
2023/06/03 10:36:13;;;;;;;5.40;2.10;;;;;;;30.22;45.34;100057.00;10371335;28;20149;-75
2023/06/03 10:41:14;;;;;;;7.55;1.65;;;;;;;30.45;45.75;100055.97;10379371;28;20129;-74
2023/06/03 10:46:16;;;;;;;4.30;1.50;;;;;;;30.71;45.45;100072.63;10381645;28;20041;-73
2023/06/03 10:51:28;;;;;;;3.45;1.65;;;;;;;30.41;45.57;99994.66;10399349;28;20080;-72
2023/06/03 10:56:51;;;;;;;16.88;2.22;;;;;;;30.95;46.77;100066.09;10380602;28;20494;-72
2023/06/03 11:01:57;;;;;;;7.45;1.70;;;;;;;31.02;46.13;100058.25;10388830;28;20037;-74
2023/06/03 11:06:58;;;;;;;5.25;1.58;;;;;;;30.98;45.69;100053.69;10411098;28;20383;-76
2023/06/03 11:12:20;;;;;;;7.50;1.77;;;;;;;30.43;46.09;100021.75;10408779;28;20124;-74
2023/06/03 11:17:22;;;;;;;4.50;1.63;;;;;;;30.69;46.49;100046.63;10419781;28;20065;-74
2023/06/03 11:22:29;;;;;;;5.70;1.80;;;;;;;30.80;45.40;100039.84;10419154;28;20045;-71
2023/06/03 11:27:30;;;;;;;4.32;1.30;;;;;;;30.67;45.17;100007.78;10419994;28;20069;-73
2023/06/03 11:32:34;;;;;;;6.57;1.58;;;;;;;30.76;45.35;100019.63;10419551;28;20045;-76
2023/06/03 11:37:41;;;;;;;19.92;2.03;;;;;;;31.06;46.96;100020.03;10418870;28;20041;-76
2023/06/03 11:43:04;;;;;;;20.98;14.63;;;;;;;31.01;44.74;100007.22;10419661;28;20092;-74
2023/06/03 11:48:10;;;;;;;50.15;33.15;;;;;;;30.74;46.01;100013.63;10417392;28;20096;-72
2023/06/03 11:53:49;;;;;;;19.25;5.38;;;;;;;31.05;44.81;100019.22;10418131;28;20033;-72
2023/06/03 11:58:55;;;;;;;11.95;3.38;;;;;;;30.94;44.28;100001.38;10236167;29;20186;-73
2023/06/03 12:04:02;;;;;;;17.75;9.18;;;;;;;30.79;44.72;99964.19;10382371;28;20057;-76
2023/06/03 12:09:03;;;;;;;11.27;2.40;;;;;;;31.16;44.84;99995.06;10418612;28;20509;-73
2023/06/03 12:14:05;;;;;;;13.35;3.08;;;;;;;31.42;44.36;100005.41;10418139;28;20041;-74
2023/06/03 12:19:07;;;;;;;4.43;2.05;;;;;;;31.34;44.36;99991.31;10426131;28;20088;-72
2023/06/03 12:24:12;;;;;;;5.65;2.42;;;;;;;31.37;43.03;99985.19;10458788;28;20044;-76
2023/06/03 12:29:14;;;;;;;26.48;14.88;;;;;;;31.48;43.48;99973.94;10457789;28;20047;-75
2023/06/03 12:34:28;;;;;;;8.77;4.53;;;;;;;31.30;42.27;99973.84;10459060;28;20114;-75
2023/06/03 12:39:48;;;;;;;10.02;2.67;;;;;;;31.26;42.51;99986.56;10458244;28;20488;-74
2023/06/03 12:44:52;;;;;;;12.40;4.68;;;;;;;31.01;42.90;99985.28;10458036;28;20041;-72
2023/06/03 12:50:07;;;;;;;8.75;2.35;;;;;;;30.74;42.99;99960.72;10458499;28;20586;-76
2023/06/03 12:55:10;;;;;;;8.10;1.85;;;;;;;30.88;42.49;99978.75;10458261;28;20045;-77
2023/06/03 13:00:18;;;;;;;10.23;4.57;;;;;;;31.06;42.25;99976.13;10439153;28;20041;-74
2023/06/03 13:05:23;;;;;;;11.18;2.17;;;;;;;30.56;42.11;99897.53;10457457;28;20132;-76
2023/06/03 13:10:24;;;;;;;21.23;8.10;;;;;;;30.93;43.19;99951.22;10456603;28;20102;-72
2023/06/03 13:15:25;;;;;;;17.45;3.45;;;;;;;30.65;42.42;99883.91;10456283;28;20514;-74
2023/06/03 13:20:26;;;;;;;19.40;2.53;;;;;;;31.06;41.95;99956.94;10438883;28;20373;-74
2023/06/03 13:25:27;;;;;;;6.90;2.65;;;;;;;30.80;41.83;99872.56;10456414;28;20041;-75
2023/06/03 13:30:28;;;;;;;11.45;3.47;;;;;;;30.62;42.41;99857.91;10438582;28;20532;-75
2023/06/03 13:35:28;;;;;;;4.28;1.90;;;;;;;31.06;41.75;99935.78;10455458;28;20079;-75
2023/06/03 13:40:31;;;;;;;13.02;3.13;;;;;;;30.86;41.16;99904.22;10455250;28;20067;-72
2023/06/03 13:45:32;;;;;;;;;;;;;;;31.27;41.54;99927.81;10456168;28;20545;-74
2023/06/03 13:50:33;;;;;;;10.13;3.70;;;;;;;30.78;41.57;99923.31;10438045;28;19921;-76
2023/06/03 13:55:33;;;;;;;8.60;3.00;;;;;;;30.28;41.59;99842.06;10441769;28;20083;-78
2023/06/03 14:00:35;;;;;;;12.57;2.58;;;;;;;30.17;42.18;99838.72;10416800;28;20079;-73
2023/06/03 14:05:36;;;;;;;7.97;3.10;;;;;;;30.48;42.38;99922.94;10447405;28;20075;-74
2023/06/03 14:10:37;;;;;;;5.43;2.10;;;;;;;30.18;41.58;99884.16;10413695;28;20144;-74
2023/06/03 14:15:38;;;;;;;11.50;2.42;;;;;;;30.37;42.01;99905.16;10445501;28;20175;-76
2023/06/03 14:20:38;;;;;;;18.42;2.83;;;;;;;29.93;41.81;99838.22;10437498;28;20067;-73
2023/06/03 14:25:40;;;;;;;11.88;2.88;;;;;;;29.69;42.15;99819.31;10413349;28;20049;-74
2023/06/03 14:30:41;;;;;;;4.70;2.00;;;;;;;30.17;42.71;99893.50;10412798;28;20416;-76
2023/06/03 14:35:41;;;;;;;6.60;2.13;;;;;;;30.21;42.16;99897.31;10413104;28;20037;-73
2023/06/03 14:40:42;;;;;;;12.48;2.20;;;;;;;30.24;42.29;99901.31;10412349;28;20049;-75
2023/06/03 14:45:43;;;;;;;7.68;2.22;;;;;;;30.15;42.32;99895.75;10412906;28;20501;-77
2023/06/03 14:50:44;;;;;;;12.75;2.88;;;;;;;29.88;42.85;99882.13;10412959;28;20132;-73
2023/06/03 14:55:47;;;;;;;6.05;1.83;;;;;;;29.88;42.94;99887.63;10413615;28;20037;-77
2023/06/03 15:00:48;;;;;;;10.38;2.00;;;;;;;29.76;43.40;99882.66;10412829;28;20141;-75
2023/06/03 15:05:49;;;;;;;5.68;1.63;;;;;;;29.55;43.32;99869.38;10412301;28;20499;-73
2023/06/03 15:10:49;;;;;;;7.78;2.38;;;;;;;29.46;43.87;99882.16;10412731;28;20060;-72
2023/06/03 15:15:50;;;;;;;32.30;2.90;;;;;;;29.38;43.80;99888.38;10412626;28;20038;-72
2023/06/03 15:20:51;;;;;;;6.88;1.77;;;;;;;29.27;43.94;99878.75;10411519;28;20497;-74
2023/06/03 15:25:52;;;;;;;14.93;2.25;;;;;;;28.94;44.32;99848.72;10417981;28;20055;-74
2023/06/03 15:30:52;;;;;;;6.75;1.70;;;;;;;29.06;44.46;99889.25;10419509;28;20680;-73
2023/06/03 15:35:53;;;;;;;8.27;1.92;;;;;;;28.51;44.71;99813.41;10402073;28;20145;-73
2023/06/03 15:40:55;;;;;;;8.40;2.75;;;;;;;28.48;45.24;99871.41;10419473;28;20095;-73
2023/06/03 15:45:56;;;;;;;14.57;2.92;;;;;;;28.30;46.34;99896.75;10419199;28;20396;-74
2023/06/03 15:50:57;;;;;;;11.63;4.15;;;;;;;27.52;47.21;99828.81;10418919;28;20047;-75
2023/06/03 15:55:58;;;;;;;12.57;2.22;;;;;;;27.71;48.08;99890.78;10418235;28;20445;-74
2023/06/03 16:00:59;;;;;;;6.88;1.95;;;;;;;27.60;49.22;99914.63;10418623;28;20073;-75
2023/06/03 16:06:00;;;;;;;7.75;1.83;;;;;;;27.38;50.17;99900.72;10417820;28;20090;-71
2023/06/03 16:11:01;;;;;;;7.07;2.10;;;;;;;27.21;51.24;99906.63;10418500;28;20053;-75
2023/06/03 16:16:01;;;;;;;16.27;2.33;;;;;;;26.95;52.30;99886.97;10418678;28;20041;-75
2023/06/03 16:21:02;;;;;;;20.92;2.55;;;;;;;26.70;53.08;99886.09;10417271;28;20049;-72
2023/06/03 16:26:03;;;;;;;12.18;2.92;;;;;;;26.68;53.53;99914.72;10418257;28;20094;-76
2023/06/03 16:31:04;;;;;;;7.47;2.10;;;;;;;26.30;53.76;99879.88;10416920;28;20046;-74
2023/06/03 16:36:05;;;;;;;14.02;3.38;;;;;;;26.34;54.40;99927.22;10415940;28;20152;-73
2023/06/03 16:41:06;;;;;;;9.40;2.78;;;;;;;26.17;54.59;99913.16;10417411;28;20143;-74
2023/06/03 16:46:07;;;;;;;8.40;2.67;;;;;;;25.90;54.24;99889.91;10416797;28;20042;-73
2023/06/03 16:51:08;;;;;;;15.18;2.97;;;;;;;25.78;54.93;99885.88;10416686;28;20523;-74
2023/06/03 16:56:10;;;;;;;13.15;2.60;;;;;;;25.68;54.64;99881.31;10416470;28;20037;-73
2023/06/03 17:01:11;;;;;;;13.30;2.73;;;;;;;25.24;54.83;99820.28;10416430;28;20079;-74
2023/06/03 17:06:12;;;;;;;14.23;3.70;;;;;;;25.49;54.78;99890.09;10399236;28;20092;-74
2023/06/03 17:11:13;;;;;;;13.13;2.40;;;;;;;25.41;55.19;99898.81;10397376;28;20081;-72
2023/06/03 17:16:14;;;;;;;11.57;2.60;;;;;;;24.85;55.61;99838.31;10415633;28;20548;-72
2023/06/03 17:21:15;;;;;;;11.93;2.55;;;;;;;24.98;56.13;99882.03;10397194;28;20121;-73
2023/06/03 17:26:16;;;;;;;9.60;2.17;;;;;;;25.05;56.04;99906.22;10414991;28;20033;-73
2023/06/03 17:31:17;;;;;;;9.48;2.08;;;;;;;25.00;56.23;99911.66;10411499;28;20045;-70
2023/06/03 17:36:18;;;;;;;11.13;2.67;;;;;;;24.91;56.65;99926.88;10426491;28;20044;-69
2023/06/03 17:41:19;;;;;;;16.15;4.63;;;;;;;24.79;56.92;99921.72;10425041;28;20052;-68
2023/06/03 17:46:19;;;;;;;11.60;3.00;;;;;;;24.70;57.01;99921.44;10432173;28;20037;-68
2023/06/03 17:51:20;;;;;;;13.10;3.67;;;;;;;24.49;57.41;99903.53;10418599;28;20385;-68
2023/06/03 17:56:21;;;;;;;17.63;2.38;;;;;;;24.41;57.30;99913.00;10422401;28;20045;-69
2023/06/03 18:01:22;;;;;;;21.67;4.63;;;;;;;24.35;57.58;99928.47;10424433;28;20075;-69
2023/06/03 18:06:22;;;;;;;17.15;4.95;;;;;;;24.29;58.24;99937.69;10429824;28;20039;-68
2023/06/03 18:11:23;;;;;;;11.32;2.72;;;;;;;24.11;58.20;99916.47;10439923;28;20061;-69
2023/06/03 18:16:24;;;;;;;8.57;2.92;;;;;;;24.10;58.50;99917.56;10450020;28;20046;-69
2023/06/03 18:21:25;;;;;;;10.05;4.00;;;;;;;23.95;58.38;99909.38;10453027;28;20040;-69
2023/06/03 18:26:26;;;;;;;15.85;3.42;;;;;;;23.97;58.76;99948.72;10453199;28;20041;-69
2023/06/03 18:31:27;;;;;;;11.93;2.72;;;;;;;23.91;58.67;99949.78;10424968;28;20037;-69
2023/06/03 18:36:28;;;;;;;7.22;2.58;;;;;;;23.39;59.16;99902.63;10436105;28;20107;-68
2023/06/03 18:41:29;;;;;;;8.45;2.13;;;;;;;23.59;59.62;99944.47;10451127;28;20419;-70
2023/06/03 18:46:30;;;;;;;8.05;2.30;;;;;;;22.73;59.69;99812.81;10432418;28;20542;-69
2023/06/03 18:51:31;;;;;;;8.93;3.00;;;;;;;22.96;59.37;99857.66;10442742;28;20132;-68
2023/06/03 18:56:32;;;;;;;7.90;2.20;;;;;;;23.37;60.08;99940.03;10440191;28;20119;-69
2023/06/03 19:01:32;;;;;;;4.82;2.13;;;;;;;23.32;60.17;99944.59;10461827;28;20530;-68
2023/06/03 19:06:33;;;;;;;8.25;2.10;;;;;;;23.19;60.79;99946.69;10461193;28;20040;-68
2023/06/03 19:11:36;;;;;;;8.70;2.47;;;;;;;23.11;61.00;99960.72;10462549;28;20056;-68
2023/06/03 19:16:41;;;;;;;4.00;1.80;;;;;;;22.53;62.47;99875.75;10452971;28;20131;-68
2023/06/03 19:21:42;;;;;;;8.43;1.90;;;;;;;22.86;61.99;99949.66;10430437;28;20339;-68
2023/06/03 19:26:43;;;;;;;4.25;1.65;;;;;;;22.86;62.45;99947.78;10419522;28;20068;-68
2023/06/03 19:31:44;;;;;;;9.30;2.00;;;;;;;22.82;62.63;99935.00;10448096;28;20131;-68
2023/06/03 19:36:45;;;;;;;4.70;1.77;;;;;;;22.79;62.75;99934.44;10461006;28;20061;-68
2023/06/03 19:41:45;;;;;;;3.60;1.50;;;;;;;22.25;63.11;99856.00;10459963;28;20393;-68
2023/06/03 19:46:46;;;;;;;7.97;1.90;;;;;;;22.66;63.26;99929.47;10459847;28;20086;-68
2023/06/03 19:51:47;;;;;;;9.35;1.80;;;;;;;22.48;63.69;99911.69;10449560;28;20128;-69
2023/06/03 19:56:48;;;;;;;5.00;1.83;;;;;;;22.55;63.62;99917.75;10419248;28;20048;-68
2023/06/03 20:01:49;;;;;;;11.90;3.00;;;;;;;22.55;63.77;99919.59;10418652;28;20104;-68
2023/06/03 20:06:50;;;;;;;5.22;1.70;;;;;;;22.53;63.95;99921.78;10418799;28;20068;-70
2023/06/03 20:11:51;;;;;;;4.53;2.10;;;;;;;22.57;64.14;99912.06;10423326;28;20443;-68
2023/06/03 20:16:53;;;;;;;4.43;1.73;;;;;;;22.57;64.53;99925.59;10457262;28;20087;-68
2023/06/03 20:21:54;;;;;;;7.85;2.30;;;;;;;22.43;66.03;99922.47;10428595;28;20499;-68
2023/06/03 20:26:54;;;;;;;4.00;1.70;;;;;;;22.37;66.43;99942.44;10417740;28;20042;-68
2023/06/03 20:31:55;;;;;;;9.15;2.28;;;;;;;22.38;66.29;99943.28;10416883;28;20047;-68
2023/06/03 20:36:56;;;;;;;2.92;1.50;;;;;;;21.91;65.95;99887.03;10416933;28;20044;-69
2023/06/03 20:41:57;;;;;;;4.13;1.80;;;;;;;22.26;66.24;99968.59;10399417;28;20049;-68
2023/06/03 20:46:57;;;;;;;3.60;1.80;;;;;;;22.23;66.62;99966.41;10416281;28;20505;-68
2023/06/03 20:51:58;;;;;;;7.97;1.90;;;;;;;22.18;66.57;99952.00;10416022;28;20516;-68
2023/06/03 20:56:59;;;;;;;5.28;1.90;;;;;;;21.81;67.18;99899.38;10416110;28;20065;-68
2023/06/03 21:02:00;;;;;;;7.88;1.95;;;;;;;22.14;67.61;99962.47;10416504;28;20048;-68
2023/06/03 21:07:02;;;;;;;3.30;1.70;;;;;;;22.03;68.17;99944.50;10415714;28;20409;-68
2023/06/03 21:12:21;;;;;;;8.18;2.10;;;;;;;22.07;70.13;99964.56;10415352;28;20519;-68
2023/06/03 21:17:22;;;;;;;4.63;1.88;;;;;;;22.00;69.72;99975.56;10415173;28;20053;-68
2023/06/03 21:22:23;;;;;;;8.55;2.25;;;;;;;21.83;70.50;99956.69;10415912;28;20399;-68
2023/06/03 21:27:24;;;;;;;6.35;2.40;;;;;;;21.96;70.60;99970.94;10415588;28;20046;-68
2023/06/03 21:32:25;;;;;;;4.35;2.00;;;;;;;21.46;71.19;99905.16;10414425;28;20041;-68
2023/06/03 21:37:26;;;;;;;4.95;1.98;;;;;;;21.91;71.50;99985.19;10447365;28;20076;-68
2023/06/03 21:42:27;;;;;;;5.18;1.98;;;;;;;21.69;71.79;99960.03;10455951;28;20076;-68
2023/06/03 21:47:28;;;;;;;4.45;1.90;;;;;;;21.30;72.38;99924.88;10455248;28;20120;-69
2023/06/03 21:52:28;;;;;;;3.63;2.08;;;;;;;21.47;72.52;99955.41;10454373;28;20045;-68
2023/06/03 21:57:29;;;;;;;4.57;1.92;;;;;;;21.46;72.79;99942.16;10455440;28;20045;-68
2023/06/03 22:02:30;;;;;;;8.98;2.10;;;;;;;21.47;73.09;99927.56;10454537;28;20051;-68
2023/06/03 22:07:31;;;;;;;4.03;1.90;;;;;;;21.29;73.73;99897.03;10454249;28;20052;-68
2023/06/03 22:12:32;;;;;;;8.27;2.42;;;;;;;20.61;74.55;99788.38;10455411;28;20033;-69
2023/06/03 22:17:32;;;;;;;3.63;2.05;;;;;;;20.99;74.94;99840.72;10441184;28;20041;-69
2023/06/03 22:22:33;;;;;;;5.97;2.97;;;;;;;20.83;75.47;99799.19;10413362;28;20041;-69
2023/06/03 22:27:34;;;;;;;11.95;3.03;;;;;;;20.99;75.11;99802.91;10395316;28;20124;-69
2023/06/03 22:32:35;;;;;;;8.77;2.92;;;;;;;21.01;74.48;99754.91;10412328;28;20067;-68
2023/06/03 22:37:36;;;;;;;9.15;2.63;;;;;;;20.95;75.17;99739.69;10396049;28;20049;-67
2023/06/03 22:42:37;;;;;;;3.95;2.08;;;;;;;21.12;74.64;99772.03;10412553;28;20520;-68
2023/06/03 22:47:37;;;;;;;5.60;2.70;;;;;;;20.91;74.18;99735.84;10412213;28;20041;-68
2023/06/03 22:52:38;;;;;;;12.35;2.65;;;;;;;20.70;74.17;99691.59;10412898;28;20037;-68
2023/06/03 22:57:39;;;;;;;5.63;2.22;;;;;;;21.24;73.99;99774.59;10412155;28;20426;-68
2023/06/03 23:02:40;;;;;;;4.93;2.20;;;;;;;20.82;73.77;99703.09;10412050;28;20460;-68
2023/06/03 23:07:41;;;;;;;6.25;1.80;;;;;;;20.84;73.47;99692.84;10412096;28;20424;-68